createdAt,value
2017-09-07T12:38:28.537Z,42.8
2017-09-07T12:39:02.668Z,42.4
2017-09-07T12:40:02.839Z,42.3
2017-09-07T12:41:03.167Z,42.2
2017-09-07T12:42:02.770Z,42.1
2017-09-07T12:43:02.772Z,42.4
2017-09-07T12:44:03.520Z,42.3
2017-09-07T12:45:03.329Z,42.3
2017-09-07T12:46:03.299Z,42.3
2017-09-07T12:47:03.251Z,42.3
2017-09-07T12:48:02.613Z,42.3
2017-09-07T12:49:02.692Z,41.9
2017-09-07T12:50:03.767Z,42
2017-09-07T12:51:02.873Z,41.8
2017-09-07T12:52:03.323Z,41.7
2017-09-07T12:53:02.119Z,41.7
2017-09-07T12:54:03.249Z,41.7
2017-09-07T12:55:03.464Z,41.7
2017-09-07T12:56:03.335Z,41.6
2017-09-07T12:57:02.884Z,41.5
2017-09-07T12:58:02.900Z,41.4
2017-09-07T12:59:02.655Z,41.1
2017-09-07T13:00:03.547Z,40.9
2017-09-07T13:01:03.021Z,40.8
2017-09-07T13:02:02.730Z,40.8
2017-09-07T13:03:03.138Z,41
2017-09-07T13:04:02.939Z,40.7
2017-09-07T13:05:02.708Z,40.5
2017-09-07T13:06:03.883Z,40.5
2017-09-07T13:07:03.631Z,40.7
2017-09-07T13:08:02.994Z,40.7
2017-09-07T13:09:03.195Z,40.3
2017-09-07T13:10:03.136Z,40.2
2017-09-07T13:11:03.312Z,40.2
2017-09-07T13:12:03.577Z,40.3
2017-09-07T13:13:03.044Z,40.1
2017-09-07T13:14:03.991Z,40.3
2017-09-07T13:15:03.642Z,40.5
2017-09-07T13:16:03.572Z,40.3
2017-09-07T13:17:03.407Z,40.3
2017-09-07T13:18:03.216Z,40.2
2017-09-07T13:19:03.374Z,39.6
2017-09-07T13:20:03.983Z,40.1
2017-09-07T13:21:03.092Z,40.2
2017-09-07T13:22:03.307Z,40.3
2017-09-07T13:23:02.868Z,40.2
2017-09-07T13:24:02.859Z,40.4
2017-09-07T13:25:03.309Z,40.3
2017-09-07T13:26:03.535Z,40.4
2017-09-07T13:27:03.503Z,40.4
2017-09-07T13:28:03.428Z,40.6
2017-09-07T13:29:03.282Z,40.5
2017-09-07T13:30:03.669Z,40
2017-09-07T13:31:03.885Z,40.2
2017-09-07T13:32:03.364Z,40
2017-09-07T13:33:03.702Z,40.3
2017-09-07T13:34:04.002Z,39.8
2017-09-07T13:35:02.805Z,40.2
2017-09-07T13:36:03.046Z,40.1
2017-09-07T13:37:03.176Z,40.1
2017-09-07T13:38:03.549Z,40.1
2017-09-07T13:39:03.378Z,39.7
2017-09-07T13:40:03.126Z,39.7
2017-09-07T13:41:03.315Z,39.7
2017-09-07T13:42:03.029Z,39.2
2017-09-07T13:43:02.787Z,39.5
2017-09-07T13:44:03.144Z,39.2
2017-09-07T13:45:03.833Z,39.3
2017-09-07T13:46:03.852Z,39.3
2017-09-07T13:47:03.792Z,39.4
2017-09-07T13:48:03.391Z,39.3
2017-09-07T13:49:03.080Z,39
2017-09-07T13:50:03.397Z,39.8
2017-09-07T13:51:03.565Z,39
2017-09-07T13:52:03.552Z,38.8
2017-09-07T13:53:03.109Z,38.8
2017-09-07T13:54:03.017Z,38.6
2017-09-07T13:55:27.940Z,39.8
2017-09-07T13:56:02.870Z,39.1
2017-09-07T13:57:03.195Z,39
2017-09-07T13:58:01.975Z,39.5
2017-09-07T13:59:02.630Z,39.3
2017-09-07T14:00:02.557Z,38.9
2017-09-07T14:01:03.546Z,38.5
2017-09-07T14:02:03.557Z,38.7
2017-09-07T14:03:03.674Z,38.9
2017-09-07T14:04:03.789Z,38.7
2017-09-07T14:05:20.329Z,38.7
2017-09-07T14:06:03.733Z,38.7
2017-09-07T14:07:03.901Z,38.9
2017-09-07T14:08:03.522Z,38.8
2017-09-07T14:09:03.775Z,38.6
2017-09-07T14:10:03.222Z,38.8
2017-09-07T14:11:04.060Z,38.6
2017-09-07T14:12:03.048Z,38.5
2017-09-07T14:13:02.972Z,38.6
2017-09-07T14:14:03.044Z,38.6
2017-09-07T14:15:03.449Z,38.8
2017-09-07T14:16:03.032Z,38.7
2017-09-07T14:17:02.500Z,38.8
2017-09-07T14:18:03.419Z,38.7
2017-09-07T14:19:03.191Z,38.8
2017-09-07T14:20:08.038Z,38.8
2017-09-07T14:21:02.650Z,38.7
2017-09-07T14:22:03.452Z,38.8
2017-09-07T14:23:03.636Z,39
2017-09-07T14:24:03.490Z,38.9
2017-09-07T14:25:03.022Z,38.9
2017-09-07T14:26:02.609Z,38.9
2017-09-07T14:27:03.035Z,38.9
2017-09-07T14:28:03.855Z,38.8
2017-09-07T14:29:03.198Z,39.1
2017-09-07T14:30:03.187Z,39.1
2017-09-07T14:31:02.895Z,38.9
2017-09-07T14:32:03.629Z,38.2
2017-09-07T14:33:11.405Z,38.3
2017-09-07T14:34:03.354Z,38.2
2017-09-07T14:35:03.480Z,38.2
2017-09-07T14:36:03.458Z,38.7
2017-09-07T14:37:03.820Z,38.7
2017-09-07T14:38:03.468Z,38.6
2017-09-07T14:39:03.511Z,38.8
2017-09-07T14:40:03.265Z,38.5
2017-09-07T14:41:03.490Z,38.9
2017-09-07T14:42:03.264Z,39.2
2017-09-07T14:43:03.631Z,39.2
2017-09-07T14:44:03.645Z,39
2017-09-07T14:45:03.441Z,39
2017-09-07T14:46:03.916Z,38.9
2017-09-07T14:47:03.526Z,38.9
2017-09-07T14:48:03.271Z,39
2017-09-07T14:49:02.857Z,39.3
2017-09-07T14:50:04.079Z,39.3
2017-09-07T14:51:03.795Z,39.3
2017-09-07T14:52:04.188Z,39.1
2017-09-07T14:53:03.542Z,39
2017-09-07T14:54:03.280Z,38.9
2017-09-07T14:55:03.486Z,39
2017-09-07T14:56:03.740Z,39.5
2017-09-07T14:57:03.089Z,39.3
2017-09-07T14:58:03.205Z,39.3
2017-09-07T14:59:04.556Z,39.6
2017-09-07T15:00:03.620Z,39.9
2017-09-07T15:01:02.899Z,39
2017-09-07T15:02:03.048Z,39.1
2017-09-07T15:03:02.721Z,38.7
2017-09-07T15:04:02.680Z,38.5
2017-09-07T15:05:03.014Z,38.7
2017-09-07T15:06:03.200Z,38.8
2017-09-07T15:07:03.120Z,38.5
2017-09-07T15:08:02.878Z,38.2
2017-09-07T15:09:02.888Z,38
2017-09-07T15:10:02.921Z,37.9
2017-09-07T15:11:02.804Z,38
2017-09-07T15:12:02.889Z,38.2
2017-09-07T15:13:02.897Z,38.4
2017-09-07T15:14:02.724Z,38.7
2017-09-07T15:15:02.895Z,38.5
2017-09-07T15:16:03.139Z,38.5
2017-09-07T15:17:03.287Z,38.5
2017-09-07T15:18:02.790Z,38.5
2017-09-07T15:19:02.536Z,38.4
2017-09-07T15:20:02.645Z,38.4
2017-09-07T15:21:02.340Z,38.7
2017-09-07T15:22:02.878Z,38.6
2017-09-07T15:23:03.235Z,38.7
2017-09-07T15:24:02.562Z,38.7
2017-09-07T15:25:02.398Z,38.5
2017-09-07T15:26:02.017Z,38.6
2017-09-07T15:27:03.022Z,38.4
2017-09-07T15:28:02.843Z,38.3
2017-09-07T15:29:05.681Z,38.8
2017-09-07T15:30:02.774Z,37.8
2017-09-07T15:31:08.295Z,38.1
2017-09-07T15:32:02.996Z,37.7
2017-09-07T15:33:02.580Z,37.5
2017-09-07T15:34:02.742Z,37.6
2017-09-07T15:35:02.516Z,37.9
2017-09-07T15:36:03.075Z,37.6
2017-09-07T15:37:02.855Z,39.5
